New Atlantic — WDC9718 — position and weather

sailwx.info

Track history (hours):
 
Tides and Currents Weather Stations Pressure Air Temp Water Temp Dewpoint Dewpoint Depression Visibility Wind Speed Wind Dir Waves Ship Positions

New Atlantic

Owner: EPB LEASING LLC, Seattle, WA. More information available from US FCC via Universal Licensing System and Coast Guard Vessel Documentation Center.

Last reported at 2014-Oct-02 13:22 UTC. Time now 2014-Oct-02 16:30 UTC.
Position N 32°43' W 117°14'.

Length 28 m; draft 2 m.

Type: Pleasure craft. MMSI: 367105860.

Date/timePositionNaut miles runAvg speedWind from/ knotsBaromVisibWave heightAir tempDewpointWater temp
2014-Oct-02 13:22N 32°43' W 117°14'0 0.0
2014-Oct-02 12:30N 32°43' W 117°14'0 0.0
2014-Oct-02 11:16N 32°43' W 117°14'0 0.0
2014-Oct-02 10:31N 32°43' W 117°14'0 0.0
2014-Oct-02 09:25N 32°43' W 117°14'0 0.0
2014-Oct-02 08:33N 32°43' W 117°14'0 0.0
2014-Oct-02 07:13N 32°43' W 117°14'0 0.0
2014-Oct-02 06:33N 32°43' W 117°14'0 0.0
2014-Oct-02 01:32N 32°43' W 117°14'0 0.0
2014-Oct-02 00:33N 32°43' W 117°14'0 0.0
2014-Oct-01 23:33N 32°43' W 117°14'0 0.0
2014-Oct-01 22:33N 32°43' W 117°14'0 0.0
2014-Oct-01 21:33N 32°43' W 117°14'0 0.0
2014-Oct-01 20:32N 32°43' W 117°14'0 0.0
2014-Oct-01 19:31N 32°43' W 117°14'0 0.0
2014-Oct-01 18:33N 32°43' W 117°14'0 0.0
2014-Oct-01 17:28N 32°43' W 117°14'  
2014-Sep-28 17:12N 32°43' W 117°14'0 0.0
2014-Sep-28 16:03N 32°43' W 117°14'  
2014-Sep-25 18:29N 32°43' W 117°14'3 0.8
2014-Sep-25 14:33N 32°40' W 117°14'1010.1
2014-Sep-25 13:33N 32°44' W 117°24'1111.1
2014-Sep-25 12:33N 32°51' W 117°34'1010.2
2014-Sep-25 11:33N 32°58' W 117°44'1010.2
2014-Sep-25 10:33N 33°05' W 117°53'1010.0
2014-Sep-25 09:33N 33°11' W 118°02'1010.2
2014-Sep-25 08:34N 33°18' W 118°11'1010.2
2014-Sep-25 07:33N 33°25' W 118°20'1010.4
2014-Sep-25 06:33N 33°31' W 118°30'2210.3
2014-Sep-25 04:24N 33°44' W 118°52'1210.5
2014-Sep-25 03:15N 33°51' W 119°04'710.8
2014-Sep-25 02:33N 33°56' W 119°11'1411.4
2014-Sep-25 01:17N 34°03' W 119°26'2712.2
2014-Sep-24 23:04N 34°11' W 119°57'1112.2
2014-Sep-24 22:08N 34°14' W 120°10'13610.7
2014-Sep-24 09:25N 36°07' W 121°45'1011.1
2014-Sep-24 08:33N 36°14' W 121°53'1111.0
2014-Sep-24 07:34N 36°23' W 121°59'1111.1
2014-Sep-24 06:34N 36°34' W 122°05'1111.3
2014-Sep-24 05:33N 36°44' W 122°10'1111.4
2014-Sep-24 04:34N 36°55' W 122°16'1211.1
2014-Sep-24 03:29N 37°05' W 122°23'1110.9
2014-Sep-24 02:28N 37°15' W 122°29'3411.9
2014-Sep-23 23:33N 37°49' W 122°28'3 2.5
2014-Sep-23 22:33N 37°52' W 122°29'0 0.0
2014-Sep-23 21:33N 37°52' W 122°29'0 0.0
2014-Sep-23 20:33N 37°52' W 122°29'0 0.0
2014-Sep-23 19:33N 37°52' W 122°29'0 0.0
2014-Sep-23 18:30N 37°52' W 122°29'0 0.0
2014-Sep-23 17:33N 37°52' W 122°29'0 0.0
2014-Sep-23 16:34N 37°52' W 122°29'0 0.0
2014-Sep-23 15:33N 37°52' W 122°29'0 0.0
2014-Sep-23 14:33N 37°52' W 122°29'0 0.0
2014-Sep-23 13:33N 37°52' W 122°29'0 0.0
2014-Sep-23 12:34N 37°52' W 122°29'0 0.0
2014-Sep-23 11:33N 37°52' W 122°29'0 0.0
2014-Sep-23 10:33N 37°52' W 122°29'0 0.0
2014-Sep-23 09:34N 37°52' W 122°29'0 0.0
2014-Sep-23 08:33N 37°52' W 122°29'0 0.0
2014-Sep-23 07:33N 37°52' W 122°29'0 0.0
2014-Sep-23 06:33N 37°52' W 122°29'0 0.0
2014-Sep-23 05:33N 37°52' W 122°29'0 0.0
2014-Sep-23 04:33N 37°52' W 122°29'0 0.0
2014-Sep-23 03:33N 37°52' W 122°29'0 0.0
2014-Sep-23 02:33N 37°52' W 122°29'0 0.0
2014-Sep-23 01:33N 37°52' W 122°29'0 0.0
2014-Sep-23 00:33N 37°52' W 122°29'0 0.0
2014-Sep-22 23:33N 37°52' W 122°29'0 0.0
2014-Sep-22 22:34N 37°52' W 122°29'0 0.0
2014-Sep-22 21:34N 37°52' W 122°29'0 0.0
2014-Sep-22 20:33N 37°52' W 122°29'0 0.0
2014-Sep-22 19:33N 37°52' W 122°29'5 4.9
2014-Sep-22 18:33N 37°49' W 122°24'3 2.9
2014-Sep-22 17:33N 37°46' W 122°23'0 0.0
2014-Sep-22 16:33N 37°46' W 122°23'4 3.6
2014-Sep-22 15:33N 37°49' W 122°26'1413.7
2014-Sep-22 14:32N 37°51' W 122°44'1514.9
2014-Sep-22 13:31N 37°58' W 123°01'  
Track history (hours):
 
Tides and Currents Weather Stations Pressure Air Temp Water Temp Dewpoint Dewpoint Depression Visibility Wind Speed Wind Dir Waves Ship Positions

New Atlantic

Owner: EPB LEASING LLC, Seattle, WA. More information available from US FCC via Universal Licensing System and Coast Guard Vessel Documentation Center.

Last reported at 2014-Oct-02 13:22 UTC. Time now 2014-Oct-02 16:30 UTC.
Position N 32°43' W 117°14'.

Length 28 m; draft 2 m.

Type: Pleasure craft. MMSI: 367105860.

Date/timePositionNaut miles runAvg speedWind from/ knotsBaromVisibWave heightAir tempDewpointWater temp
2014-Oct-02 13:22N 32°43' W 117°14'0 0.0
2014-Oct-02 12:30N 32°43' W 117°14'0 0.0
2014-Oct-02 11:16N 32°43' W 117°14'0 0.0
2014-Oct-02 10:31N 32°43' W 117°14'0 0.0
2014-Oct-02 09:25N 32°43' W 117°14'0 0.0
2014-Oct-02 08:33N 32°43' W 117°14'0 0.0
2014-Oct-02 07:13N 32°43' W 117°14'0 0.0
2014-Oct-02 06:33N 32°43' W 117°14'0 0.0
2014-Oct-02 01:32N 32°43' W 117°14'0 0.0
2014-Oct-02 00:33N 32°43' W 117°14'0 0.0
2014-Oct-01 23:33N 32°43' W 117°14'0 0.0
2014-Oct-01 22:33N 32°43' W 117°14'0 0.0
2014-Oct-01 21:33N 32°43' W 117°14'0 0.0
2014-Oct-01 20:32N 32°43' W 117°14'0 0.0
2014-Oct-01 19:31N 32°43' W 117°14'0 0.0
2014-Oct-01 18:33N 32°43' W 117°14'0 0.0
2014-Oct-01 17:28N 32°43' W 117°14'  
2014-Sep-28 17:12N 32°43' W 117°14'0 0.0
2014-Sep-28 16:03N 32°43' W 117°14'  
2014-Sep-25 18:29N 32°43' W 117°14'3 0.8
2014-Sep-25 14:33N 32°40' W 117°14'1010.1
2014-Sep-25 13:33N 32°44' W 117°24'1111.1
2014-Sep-25 12:33N 32°51' W 117°34'1010.2
2014-Sep-25 11:33N 32°58' W 117°44'1010.2
2014-Sep-25 10:33N 33°05' W 117°53'1010.0
2014-Sep-25 09:33N 33°11' W 118°02'1010.2
2014-Sep-25 08:34N 33°18' W 118°11'1010.2
2014-Sep-25 07:33N 33°25' W 118°20'1010.4
2014-Sep-25 06:33N 33°31' W 118°30'2210.3
2014-Sep-25 04:24N 33°44' W 118°52'1210.5
2014-Sep-25 03:15N 33°51' W 119°04'710.8
2014-Sep-25 02:33N 33°56' W 119°11'1411.4
2014-Sep-25 01:17N 34°03' W 119°26'2712.2
2014-Sep-24 23:04N 34°11' W 119°57'1112.2
2014-Sep-24 22:08N 34°14' W 120°10'13610.7
2014-Sep-24 09:25N 36°07' W 121°45'1011.1
2014-Sep-24 08:33N 36°14' W 121°53'1111.0
2014-Sep-24 07:34N 36°23' W 121°59'1111.1
2014-Sep-24 06:34N 36°34' W 122°05'1111.3
2014-Sep-24 05:33N 36°44' W 122°10'1111.4
2014-Sep-24 04:34N 36°55' W 122°16'1211.1
2014-Sep-24 03:29N 37°05' W 122°23'1110.9
2014-Sep-24 02:28N 37°15' W 122°29'3411.9
2014-Sep-23 23:33N 37°49' W 122°28'3 2.5
2014-Sep-23 22:33N 37°52' W 122°29'0 0.0
2014-Sep-23 21:33N 37°52' W 122°29'0 0.0
2014-Sep-23 20:33N 37°52' W 122°29'0 0.0
2014-Sep-23 19:33N 37°52' W 122°29'0 0.0
2014-Sep-23 18:30N 37°52' W 122°29'0 0.0
2014-Sep-23 17:33N 37°52' W 122°29'0 0.0
2014-Sep-23 16:34N 37°52' W 122°29'0 0.0
2014-Sep-23 15:33N 37°52' W 122°29'0 0.0
2014-Sep-23 14:33N 37°52' W 122°29'0 0.0
2014-Sep-23 13:33N 37°52' W 122°29'0 0.0
2014-Sep-23 12:34N 37°52' W 122°29'0 0.0
2014-Sep-23 11:33N 37°52' W 122°29'0 0.0
2014-Sep-23 10:33N 37°52' W 122°29'0 0.0
2014-Sep-23 09:34N 37°52' W 122°29'0 0.0
2014-Sep-23 08:33N 37°52' W 122°29'0 0.0
2014-Sep-23 07:33N 37°52' W 122°29'0 0.0
2014-Sep-23 06:33N 37°52' W 122°29'0 0.0
2014-Sep-23 05:33N 37°52' W 122°29'0 0.0
2014-Sep-23 04:33N 37°52' W 122°29'0 0.0
2014-Sep-23 03:33N 37°52' W 122°29'0 0.0
2014-Sep-23 02:33N 37°52' W 122°29'0 0.0
2014-Sep-23 01:33N 37°52' W 122°29'0 0.0
2014-Sep-23 00:33N 37°52' W 122°29'0 0.0
2014-Sep-22 23:33N 37°52' W 122°29'0 0.0
2014-Sep-22 22:34N 37°52' W 122°29'0 0.0
2014-Sep-22 21:34N 37°52' W 122°29'0 0.0
2014-Sep-22 20:33N 37°52' W 122°29'0 0.0
2014-Sep-22 19:33N 37°52' W 122°29'5 4.9
2014-Sep-22 18:33N 37°49' W 122°24'3 2.9
2014-Sep-22 17:33N 37°46' W 122°23'0 0.0
2014-Sep-22 16:33N 37°46' W 122°23'4 3.6
2014-Sep-22 15:33N 37°49' W 122°26'1413.7
2014-Sep-22 14:32N 37°51' W 122°44'1514.9
2014-Sep-22 13:31N 37°58' W 123°01'  

Dump ship's entire track history